createdAt,value
2023-05-09T00:02:19.486Z,12.20
2023-05-09T00:04:47.394Z,12.20
2023-05-09T00:07:14.613Z,12.10
2023-05-09T00:09:41.800Z,12.10
2023-05-09T00:12:09.834Z,12.00
2023-05-09T00:14:37.841Z,12.00
2023-05-09T00:17:05.457Z,12.00
2023-05-09T00:19:33.538Z,12.00
2023-05-09T00:22:00.830Z,11.90
2023-05-09T00:24:28.204Z,11.90
2023-05-09T00:26:55.809Z,11.90
2023-05-09T00:29:23.682Z,11.90
2023-05-09T00:31:51.534Z,11.80
2023-05-09T00:34:18.760Z,11.80
2023-05-09T00:36:47.104Z,11.70
2023-05-09T00:39:14.451Z,11.70
2023-05-09T00:41:43.051Z,11.70
2023-05-09T00:44:10.781Z,11.70
2023-05-09T00:46:39.730Z,11.60
2023-05-09T00:49:07.236Z,11.60
2023-05-09T00:51:36.283Z,11.60
2023-05-09T00:54:03.858Z,11.50
2023-05-09T00:56:31.990Z,11.40
2023-05-09T00:59:00.853Z,11.40
2023-05-09T01:01:28.759Z,11.40
2023-05-09T01:03:56.492Z,11.30
2023-05-09T01:06:41.371Z,11.30
2023-05-09T01:09:12.338Z,11.30
2023-05-09T01:12:05.488Z,11.30
2023-05-09T01:14:56.294Z,11.30
2023-05-09T01:17:35.461Z,11.30
2023-05-09T01:20:29.558Z,11.20
2023-05-09T01:23:22.241Z,11.20
2023-05-09T01:25:59.004Z,11.10
2023-05-09T01:28:55.121Z,11.10
2023-05-09T01:31:24.933Z,11.10
2023-05-09T01:33:58.565Z,11.00
2023-05-09T01:36:30.628Z,11.00
2023-05-09T01:38:59.806Z,11.00
2023-05-09T01:41:30.973Z,11.00
2023-05-09T01:44:01.333Z,11.00
2023-05-09T01:46:29.616Z,10.90
2023-05-09T01:48:58.949Z,10.90
2023-05-09T01:51:27.706Z,10.80
2023-05-09T01:53:57.556Z,10.80
2023-05-09T01:56:26.085Z,10.80
2023-05-09T01:58:54.220Z,10.80
2023-05-09T02:01:22.464Z,10.70
2023-05-09T02:03:52.892Z,10.70
2023-05-09T02:06:22.707Z,10.70
2023-05-09T02:08:51.347Z,10.60
2023-05-09T02:11:18.732Z,10.60
2023-05-09T02:13:46.428Z,10.60
2023-05-09T02:16:14.708Z,10.60
2023-05-09T02:18:42.096Z,10.60
2023-05-09T02:21:09.927Z,10.70
2023-05-09T02:23:37.142Z,10.60
2023-05-09T02:26:04.610Z,10.60
2023-05-09T02:28:32.218Z,10.60
2023-05-09T02:31:02.374Z,10.60
2023-05-09T02:33:31.193Z,10.50
2023-05-09T02:35:59.056Z,10.50
2023-05-09T02:38:27.508Z,10.40
2023-05-09T02:40:54.806Z,10.40
2023-05-09T02:43:22.529Z,10.40
2023-05-09T02:45:49.974Z,10.40
2023-05-09T02:48:17.785Z,10.30
2023-05-09T02:50:46.328Z,10.30
2023-05-09T02:53:13.757Z,10.30
2023-05-09T02:55:40.944Z,10.20
2023-05-09T02:58:14.368Z,10.30
2023-05-09T03:00:42.708Z,10.20
2023-05-09T03:03:10.359Z,10.20
2023-05-09T03:05:37.776Z,10.20
2023-05-09T03:08:05.494Z,10.20
2023-05-09T03:10:32.810Z,10.20
2023-05-09T03:13:02.686Z,10.20
2023-05-09T03:15:29.831Z,10.10
2023-05-09T03:17:57.215Z,10.10
2023-05-09T03:20:24.620Z,10.10
2023-05-09T03:22:52.357Z,10.00
2023-05-09T03:25:19.845Z,10.00
2023-05-09T03:27:47.999Z,10.00
2023-05-09T03:30:15.804Z,10.00
2023-05-09T03:32:46.119Z,10.00
2023-05-09T03:35:14.058Z,10.10
2023-05-09T03:37:41.647Z,10.10
2023-05-09T03:40:09.334Z,10.10
2023-05-09T03:42:36.900Z,10.10
2023-05-09T03:45:04.521Z,10.00
2023-05-09T03:47:32.100Z,10.00
2023-05-09T03:49:59.490Z,9.90
2023-05-09T03:52:26.795Z,9.90
2023-05-09T03:54:54.278Z,9.90
2023-05-09T03:57:21.610Z,9.90
2023-05-09T03:59:49.096Z,9.80
2023-05-09T04:02:16.440Z,9.80
2023-05-09T04:04:43.815Z,9.80
2023-05-09T04:07:11.369Z,9.80
2023-05-09T04:09:38.494Z,9.80
2023-05-09T04:12:06.196Z,9.80
2023-05-09T04:14:34.119Z,9.80
2023-05-09T04:17:01.788Z,9.80
2023-05-09T04:19:29.531Z,9.80
2023-05-09T04:21:56.743Z,9.80
2023-05-09T04:24:24.557Z,9.80
2023-05-09T04:26:52.570Z,9.80
2023-05-09T04:29:19.802Z,9.80
2023-05-09T04:31:47.182Z,9.90
2023-05-09T04:34:14.921Z,9.80
2023-05-09T04:36:42.599Z,9.90
2023-05-09T04:39:10.898Z,9.90
2023-05-09T04:41:38.133Z,9.90
2023-05-09T04:44:05.762Z,10.00
2023-05-09T04:46:33.463Z,10.00
2023-05-09T04:49:00.830Z,10.10
2023-05-09T04:51:28.220Z,10.10
2023-05-09T04:53:55.430Z,10.20
2023-05-09T04:56:23.020Z,10.20
2023-05-09T04:58:50.841Z,10.30
2023-05-09T05:01:17.999Z,10.30
2023-05-09T05:03:46.371Z,10.40
2023-05-09T05:06:13.791Z,10.40
2023-05-09T05:08:41.317Z,10.40
2023-05-09T05:11:08.559Z,10.40
2023-05-09T05:13:35.881Z,10.40
2023-05-09T05:16:03.684Z,10.50
2023-05-09T05:18:31.083Z,10.50
2023-05-09T05:20:58.408Z,10.60
2023-05-09T05:23:25.953Z,10.60
2023-05-09T05:25:53.766Z,10.70
2023-05-09T05:28:21.022Z,10.80
2023-05-09T05:30:48.541Z,10.90
2023-05-09T05:33:15.917Z,11.00
2023-05-09T05:35:43.592Z,11.10
2023-05-09T05:38:10.717Z,11.10
2023-05-09T05:40:38.209Z,11.20
2023-05-09T05:43:05.326Z,11.30
2023-05-09T05:45:32.949Z,11.40
2023-05-09T05:48:00.330Z,11.50
2023-05-09T05:50:27.506Z,11.50
2023-05-09T05:52:54.877Z,11.60
2023-05-09T05:55:22.536Z,11.70
2023-05-09T05:57:50.074Z,11.80
2023-05-09T06:00:17.741Z,11.80
2023-05-09T06:02:45.838Z,11.90
2023-05-09T06:05:13.483Z,11.90
2023-05-09T06:07:44.708Z,11.90
2023-05-09T06:10:12.201Z,11.90
2023-05-09T06:12:39.537Z,12.00
2023-05-09T06:15:07.840Z,12.10
2023-05-09T06:17:35.378Z,12.10
2023-05-09T06:20:02.813Z,12.10
2023-05-09T06:22:30.647Z,12.20
2023-05-09T06:24:58.424Z,12.30
2023-05-09T06:27:25.938Z,12.40
2023-05-09T06:29:53.202Z,12.40
2023-05-09T06:32:20.456Z,12.50
2023-05-09T06:34:48.399Z,12.50
2023-05-09T06:37:15.469Z,12.60
2023-05-09T06:39:43.724Z,12.60
2023-05-09T06:42:11.042Z,12.70
2023-05-09T06:44:38.760Z,12.70
2023-05-09T06:47:06.347Z,12.80
2023-05-09T06:49:33.662Z,12.80
2023-05-09T06:52:00.895Z,12.80
2023-05-09T06:54:28.165Z,12.90
2023-05-09T06:56:55.747Z,12.90
2023-05-09T06:59:23.376Z,13.00
2023-05-09T07:01:50.569Z,13.10
2023-05-09T07:04:17.880Z,13.10
2023-05-09T07:06:45.335Z,13.20
2023-05-09T07:09:15.427Z,13.20
2023-05-09T07:11:42.828Z,13.30
2023-05-09T07:14:10.276Z,13.40
2023-05-09T07:16:37.773Z,13.50
2023-05-09T07:19:05.351Z,13.50
2023-05-09T07:21:35.581Z,13.60
2023-05-09T07:24:02.794Z,13.70
2023-05-09T07:26:30.036Z,13.70
2023-05-09T07:28:57.318Z,13.80
2023-05-09T07:31:24.542Z,13.90
2023-05-09T07:33:51.772Z,14.00
2023-05-09T07:36:18.949Z,14.00
2023-05-09T07:38:48.258Z,14.10
2023-05-09T07:41:15.722Z,14.10
2023-05-09T07:43:42.935Z,14.20
2023-05-09T07:46:10.368Z,14.20
2023-05-09T07:48:37.571Z,14.30
2023-05-09T07:51:04.919Z,14.30
2023-05-09T07:53:32.116Z,14.40
2023-05-09T07:55:59.568Z,14.40
2023-05-09T07:58:26.688Z,14.50
2023-05-09T08:00:56.737Z,14.50
2023-05-09T08:03:23.936Z,14.70
2023-05-09T08:05:54.833Z,14.70
2023-05-09T08:08:22.414Z,14.80
2023-05-09T08:10:49.954Z,14.90
2023-05-09T08:13:18.992Z,15.00
2023-05-09T08:15:46.302Z,15.10
2023-05-09T08:18:13.537Z,15.30
2023-05-09T08:20:41.385Z,15.40
2023-05-09T08:23:08.920Z,15.60
2023-05-09T08:25:36.005Z,15.70
2023-05-09T08:28:03.234Z,15.90
2023-05-09T08:30:30.595Z,16.20
2023-05-09T08:32:57.777Z,16.30
2023-05-09T08:35:25.088Z,16.50
2023-05-09T08:37:52.137Z,16.70
2023-05-09T08:40:19.669Z,16.90
2023-05-09T08:42:50.342Z,17.00
2023-05-09T08:45:26.538Z,17.20
2023-05-09T08:47:55.053Z,17.30
2023-05-09T08:50:23.024Z,17.50
2023-05-09T08:52:51.876Z,17.70
2023-05-09T08:55:19.496Z,17.80
2023-05-09T08:57:47.130Z,17.90
2023-05-09T09:00:18.679Z,18.10
2023-05-09T09:02:52.123Z,18.20
2023-05-09T09:05:40.069Z,18.40
2023-05-09T09:08:08.328Z,18.60
2023-05-09T09:10:35.920Z,18.80
2023-05-09T09:13:06.159Z,18.90
2023-05-09T09:15:37.904Z,19.00
2023-05-09T09:18:11.421Z,19.20
2023-05-09T09:20:51.793Z,19.30
2023-05-09T09:23:21.308Z,19.50
2023-05-09T09:25:49.268Z,19.70
2023-05-09T09:28:16.768Z,19.70
2023-05-09T09:30:47.929Z,19.70
2023-05-09T09:33:23.045Z,19.80
2023-05-09T09:35:52.114Z,19.90
2023-05-09T09:38:20.976Z,20.00
2023-05-09T09:40:57.584Z,20.10
2023-05-09T09:43:31.875Z,20.20
2023-05-09T09:46:03.144Z,20.30
2023-05-09T09:48:35.432Z,20.50
2023-05-09T09:51:11.972Z,20.60
2023-05-09T09:53:43.510Z,20.60
2023-05-09T09:56:11.571Z,20.70
2023-05-09T09:58:39.235Z,20.80
2023-05-09T10:01:22.422Z,20.90
2023-05-09T10:03:49.606Z,21.00
2023-05-09T10:06:17.883Z,21.10
2023-05-09T10:08:49.542Z,21.20
2023-05-09T10:11:17.329Z,21.20
2023-05-09T10:13:45.759Z,21.30
2023-05-09T10:16:14.207Z,21.40
2023-05-09T10:18:43.787Z,21.30
2023-05-09T10:21:15.481Z,21.20
2023-05-09T10:23:47.896Z,21.30
2023-05-09T10:26:29.157Z,21.40
2023-05-09T10:28:58.536Z,21.30
2023-05-09T10:31:30.820Z,21.20
2023-05-09T10:34:04.987Z,21.20
2023-05-09T10:36:32.841Z,21.30
2023-05-09T10:39:01.417Z,21.50
2023-05-09T10:41:29.017Z,21.60
2023-05-09T10:44:00.144Z,21.60
2023-05-09T10:46:27.975Z,21.50
2023-05-09T10:48:55.808Z,21.50
2023-05-09T10:51:25.628Z,21.30
2023-05-09T10:53:52.969Z,21.20
2023-05-09T10:56:33.788Z,21.20
2023-05-09T10:59:01.573Z,21.10
2023-05-09T11:01:37.946Z,21.10
2023-05-09T11:04:17.441Z,21.10
2023-05-09T11:06:52.113Z,21.20
2023-05-09T11:09:35.680Z,21.30
2023-05-09T11:12:05.550Z,21.60
2023-05-09T11:14:39.592Z,21.80
2023-05-09T11:17:23.161Z,21.90
2023-05-09T11:19:50.791Z,22.00
2023-05-09T11:22:21.588Z,22.10
2023-05-09T11:24:51.128Z,22.20
2023-05-09T11:27:23.777Z,22.20
2023-05-09T11:29:53.615Z,22.40
2023-05-09T11:32:22.744Z,22.40
2023-05-09T11:34:50.596Z,22.60
2023-05-09T11:37:19.404Z,22.70
2023-05-09T11:39:57.415Z,22.70
2023-05-09T11:42:26.681Z,22.50
2023-05-09T11:44:54.362Z,22.50
2023-05-09T11:47:22.086Z,22.40
2023-05-09T11:49:50.242Z,22.40
2023-05-09T11:52:23.396Z,22.40
2023-05-09T11:54:50.907Z,22.40
2023-05-09T11:57:18.119Z,22.20
2023-05-09T11:59:45.767Z,22.30
2023-05-09T12:02:14.758Z,22.40
2023-05-09T12:04:42.293Z,22.60
2023-05-09T12:07:12.931Z,22.80
2023-05-09T12:09:40.596Z,22.70
2023-05-09T12:12:12.399Z,22.50
2023-05-09T12:14:40.880Z,22.40
2023-05-09T12:17:08.732Z,22.50
2023-05-09T12:19:37.395Z,22.60
2023-05-09T12:22:08.832Z,22.60
2023-05-09T12:24:37.701Z,22.60
2023-05-09T12:27:05.602Z,22.80
2023-05-09T12:29:33.215Z,22.90
2023-05-09T12:32:01.025Z,23.00
2023-05-09T12:34:28.512Z,22.90
2023-05-09T12:36:55.794Z,22.90
2023-05-09T12:39:23.414Z,22.90
2023-05-09T12:42:01.231Z,23.00
2023-05-09T12:45:03.900Z,23.10
2023-05-09T12:47:16.912Z,23.00
2023-05-09T12:49:49.069Z,23.10
2023-05-09T12:52:21.061Z,23.10
2023-05-09T12:54:49.095Z,23.20
2023-05-09T12:57:30.136Z,23.10
2023-05-09T13:00:00.358Z,23.20
2023-05-09T13:02:30.200Z,23.10
2023-05-09T13:05:17.347Z,23.10
2023-05-09T13:07:50.984Z,23.20
2023-05-09T13:10:26.442Z,23.40
2023-05-09T13:12:54.963Z,23.40
2023-05-09T13:15:23.673Z,23.30
2023-05-09T13:17:53.003Z,23.10
2023-05-09T13:20:20.488Z,23.00
2023-05-09T13:22:47.824Z,22.70
2023-05-09T13:25:16.282Z,22.60
2023-05-09T13:27:43.434Z,22.80
2023-05-09T13:30:15.989Z,22.90
2023-05-09T13:32:43.318Z,23.20
2023-05-09T13:35:10.928Z,23.40
2023-05-09T13:37:38.210Z,23.30
2023-05-09T13:40:05.738Z,23.30
2023-05-09T13:42:35.377Z,23.10
2023-05-09T13:45:02.945Z,23.00
2023-05-09T13:47:30.333Z,22.80
2023-05-09T13:49:57.643Z,22.70
2023-05-09T13:52:25.021Z,22.70
2023-05-09T13:54:52.822Z,22.60
2023-05-09T13:57:20.246Z,22.50
2023-05-09T13:59:48.585Z,22.60
2023-05-09T14:02:16.523Z,22.60
2023-05-09T14:04:43.856Z,22.60
2023-05-09T14:07:15.064Z,22.60
2023-05-09T14:09:42.532Z,22.80
2023-05-09T14:12:09.894Z,22.90
2023-05-09T14:14:37.286Z,22.90
2023-05-09T14:17:04.767Z,22.80
2023-05-09T14:19:35.552Z,22.60
2023-05-09T14:22:02.998Z,22.60
2023-05-09T14:24:31.051Z,22.50
2023-05-09T14:26:58.283Z,22.70
2023-05-09T14:29:25.728Z,22.80
2023-05-09T14:31:52.945Z,22.70
2023-05-09T14:34:20.388Z,22.60
2023-05-09T14:36:49.082Z,22.60
2023-05-09T14:39:16.590Z,22.50
2023-05-09T14:41:43.828Z,22.50
2023-05-09T14:44:11.445Z,22.30
2023-05-09T14:46:38.896Z,22.20
2023-05-09T14:49:06.406Z,22.00
2023-05-09T14:51:34.393Z,21.80
2023-05-09T14:54:04.364Z,21.80
2023-05-09T14:56:31.975Z,21.80
2023-05-09T14:58:59.217Z,21.90
2023-05-09T15:01:26.545Z,21.90
2023-05-09T15:03:54.384Z,21.90
2023-05-09T15:06:24.733Z,21.80
2023-05-09T15:08:52.413Z,21.70
2023-05-09T15:11:19.735Z,21.70
2023-05-09T15:13:49.134Z,21.70
2023-05-09T15:16:16.995Z,21.70
2023-05-09T15:18:45.810Z,21.60
2023-05-09T15:21:13.514Z,21.50
2023-05-09T15:23:40.900Z,21.40
2023-05-09T15:26:09.208Z,21.40
2023-05-09T15:28:36.372Z,21.40
2023-05-09T15:31:03.683Z,21.40
2023-05-09T15:33:31.022Z,21.40
2023-05-09T15:36:00.165Z,21.30
2023-05-09T15:38:28.188Z,21.20
2023-05-09T15:40:55.627Z,21.10
2023-05-09T15:43:23.012Z,21.20
2023-05-09T15:45:50.665Z,21.20
2023-05-09T15:48:18.019Z,21.20
2023-05-09T15:50:45.627Z,21.20
2023-05-09T15:53:13.193Z,21.20
2023-05-09T15:55:40.467Z,21.10
2023-05-09T15:58:08.844Z,21.10
2023-05-09T16:00:36.559Z,21.20
2023-05-09T16:03:04.513Z,21.20
2023-05-09T16:05:32.285Z,21.20
2023-05-09T16:07:59.836Z,21.20
2023-05-09T16:10:27.332Z,21.20
2023-05-09T16:12:54.931Z,21.10
2023-05-09T16:15:22.349Z,21.10
2023-05-09T16:17:49.661Z,21.20
2023-05-09T16:20:17.156Z,21.20
2023-05-09T16:22:44.588Z,21.20
2023-05-09T16:25:12.331Z,21.10
2023-05-09T16:27:39.640Z,21.00
2023-05-09T16:30:07.755Z,20.90
2023-05-09T16:32:35.315Z,20.80
2023-05-09T16:35:02.594Z,20.80
2023-05-09T16:37:30.275Z,20.80
2023-05-09T16:39:59.545Z,20.80
2023-05-09T16:42:27.861Z,20.80
2023-05-09T16:44:56.298Z,20.70
2023-05-09T16:47:23.811Z,20.60
2023-05-09T16:49:51.015Z,20.50
2023-05-09T16:52:18.583Z,20.30
2023-05-09T16:54:45.844Z,20.20
2023-05-09T16:57:13.889Z,20.20
2023-05-09T16:59:41.357Z,20.20
2023-05-09T17:02:08.842Z,20.20
2023-05-09T17:04:37.711Z,20.10
2023-05-09T17:07:05.335Z,20.10
2023-05-09T17:09:32.770Z,20.10
2023-05-09T17:12:00.845Z,20.00
2023-05-09T17:14:28.200Z,19.90
2023-05-09T17:16:55.640Z,19.90
2023-05-09T17:19:24.445Z,19.90
2023-05-09T17:21:51.698Z,19.90
2023-05-09T17:24:19.073Z,19.90
2023-05-09T17:26:46.436Z,19.90
2023-05-09T17:29:15.332Z,19.90
2023-05-09T17:31:42.824Z,19.80
2023-05-09T17:34:10.100Z,19.80
2023-05-09T17:36:37.529Z,19.70
2023-05-09T17:39:05.069Z,19.70
2023-05-09T17:41:32.382Z,19.60
2023-05-09T17:43:59.659Z,19.60
2023-05-09T17:46:27.559Z,19.50
2023-05-09T17:48:54.879Z,19.40
2023-05-09T17:51:22.753Z,19.40
2023-05-09T17:53:50.415Z,19.30
2023-05-09T17:56:17.788Z,19.20
2023-05-09T17:58:45.643Z,19.20
2023-05-09T18:01:13.827Z,19.10
2023-05-09T18:03:41.514Z,19.10
2023-05-09T18:06:08.901Z,19.00
2023-05-09T18:08:37.875Z,19.00
2023-05-09T18:11:05.167Z,18.90
2023-05-09T18:13:34.781Z,18.90
2023-05-09T18:16:02.958Z,18.80
2023-05-09T18:18:32.664Z,18.80
2023-05-09T18:21:00.756Z,18.70
2023-05-09T18:23:28.453Z,18.60
2023-05-09T18:25:56.214Z,18.60
2023-05-09T18:28:27.983Z,18.60
2023-05-09T18:30:59.438Z,18.50
2023-05-09T18:33:28.588Z,18.40
2023-05-09T18:35:59.122Z,18.30
2023-05-09T18:38:26.861Z,18.30
2023-05-09T18:40:54.580Z,18.20
2023-05-09T18:43:23.552Z,18.20
2023-05-09T18:45:52.688Z,18.20
2023-05-09T18:48:20.405Z,18.10
2023-05-09T18:50:47.868Z,18.10
2023-05-09T18:53:15.370Z,18.00
2023-05-09T18:55:43.218Z,18.00
2023-05-09T18:58:10.494Z,17.90
2023-05-09T19:00:37.951Z,17.90
2023-05-09T19:03:05.731Z,17.80
2023-05-09T19:05:33.874Z,17.70
2023-05-09T19:08:01.293Z,17.70
2023-05-09T19:10:28.571Z,17.60
2023-05-09T19:12:56.888Z,17.60
2023-05-09T19:15:24.633Z,17.50
2023-05-09T19:17:52.382Z,17.50
2023-05-09T19:20:19.659Z,17.40
2023-05-09T19:22:51.479Z,17.40
2023-05-09T19:25:22.176Z,17.30
2023-05-09T19:27:49.644Z,17.30
2023-05-09T19:30:18.248Z,17.20
2023-05-09T19:32:45.617Z,17.20
2023-05-09T19:35:13.130Z,17.10
2023-05-09T19:37:40.530Z,17.00
2023-05-09T19:40:09.933Z,17.00
2023-05-09T19:42:38.081Z,16.90
2023-05-09T19:45:05.740Z,16.90
2023-05-09T19:47:34.726Z,16.90
2023-05-09T19:50:02.820Z,16.90
2023-05-09T19:52:30.435Z,16.70
2023-05-09T19:54:58.170Z,16.70
2023-05-09T19:57:25.630Z,16.70
2023-05-09T19:59:53.854Z,16.60
2023-05-09T20:02:21.277Z,16.60
2023-05-09T20:04:50.264Z,16.40
2023-05-09T20:07:22.642Z,16.40
2023-05-09T20:09:50.732Z,16.40
2023-05-09T20:12:17.897Z,16.30
2023-05-09T20:14:45.354Z,16.20
2023-05-09T20:17:13.291Z,16.20
2023-05-09T20:19:40.654Z,16.10
2023-05-09T20:22:10.238Z,16.00
2023-05-09T20:24:37.369Z,16.00
2023-05-09T20:27:04.715Z,15.90
2023-05-09T20:29:32.158Z,15.90
2023-05-09T20:31:59.851Z,15.90
2023-05-09T20:34:27.762Z,15.90
2023-05-09T20:36:55.443Z,15.80
2023-05-09T20:39:23.325Z,15.80
2023-05-09T20:41:52.427Z,15.80
2023-05-09T20:44:19.659Z,15.80
2023-05-09T20:46:47.283Z,15.80
2023-05-09T20:49:15.734Z,15.70
2023-05-09T20:51:43.198Z,15.70
2023-05-09T20:54:10.830Z,15.70
2023-05-09T20:56:39.477Z,15.70
2023-05-09T20:59:06.986Z,15.60
2023-05-09T21:01:37.178Z,15.60
2023-05-09T21:04:06.184Z,15.60
2023-05-09T21:06:33.913Z,15.60
2023-05-09T21:09:01.292Z,15.60
2023-05-09T21:11:28.974Z,15.50
2023-05-09T21:13:56.216Z,15.50
2023-05-09T21:16:23.606Z,15.50
2023-05-09T21:18:51.124Z,15.50
2023-05-09T21:21:18.541Z,15.50
2023-05-09T21:23:45.900Z,15.50
2023-05-09T21:26:13.262Z,15.50
2023-05-09T21:28:40.311Z,15.40
2023-05-09T21:31:09.027Z,15.40
2023-05-09T21:33:38.160Z,15.40
2023-05-09T21:36:05.656Z,15.40
2023-05-09T21:38:34.207Z,15.30
2023-05-09T21:41:01.548Z,15.30
2023-05-09T21:43:29.522Z,15.20
2023-05-09T21:45:58.365Z,15.20
2023-05-09T21:48:25.720Z,15.20
2023-05-09T21:50:53.010Z,15.20
2023-05-09T21:53:20.591Z,15.20
2023-05-09T21:55:48.334Z,15.10
2023-05-09T21:58:17.364Z,15.10
2023-05-09T22:00:45.632Z,15.10
2023-05-09T22:03:14.247Z,15.10
2023-05-09T22:05:41.530Z,15.10
2023-05-09T22:08:13.108Z,15.00
2023-05-09T22:10:40.435Z,15.00
2023-05-09T22:13:09.571Z,15.00
2023-05-09T22:18:17.991Z,15.00
2023-05-09T22:20:48.872Z,14.90
2023-05-09T22:23:16.602Z,14.90
2023-05-09T22:25:43.862Z,14.90
2023-05-09T22:28:11.175Z,14.90
2023-05-09T22:30:39.078Z,14.90
2023-05-09T22:33:09.272Z,14.80
2023-05-09T22:35:36.820Z,14.80
2023-05-09T22:38:04.006Z,14.80
2023-05-09T22:40:31.159Z,14.80
2023-05-09T22:42:58.576Z,14.80
2023-05-09T22:45:25.971Z,14.80
2023-05-09T22:47:53.663Z,14.80
2023-05-09T22:50:20.968Z,14.70
2023-05-09T22:52:48.544Z,14.70
2023-05-09T22:55:15.796Z,14.60
2023-05-09T22:57:43.509Z,14.60
2023-05-09T23:00:11.388Z,14.60
2023-05-09T23:02:38.938Z,14.50
2023-05-09T23:05:06.895Z,14.50
2023-05-09T23:07:34.044Z,14.50
2023-05-09T23:10:01.959Z,14.40
2023-05-09T23:12:29.409Z,14.40
2023-05-09T23:14:57.235Z,14.40
2023-05-09T23:17:24.894Z,14.30
2023-05-09T23:19:52.827Z,14.30
2023-05-09T23:22:20.145Z,14.30
2023-05-09T23:24:47.546Z,14.30
2023-05-09T23:27:14.874Z,14.20
2023-05-09T23:29:42.202Z,14.20
2023-05-09T23:32:09.457Z,14.20
2023-05-09T23:34:37.071Z,14.10
2023-05-09T23:37:05.101Z,14.10
2023-05-09T23:39:32.700Z,14.10
2023-05-09T23:42:00.268Z,14.10
2023-05-09T23:44:28.325Z,14.00
2023-05-09T23:46:55.636Z,14.00
2023-05-09T23:49:22.933Z,14.00
2023-05-09T23:51:50.093Z,14.00
2023-05-09T23:54:17.536Z,13.90
2023-05-09T23:56:44.767Z,13.90
2023-05-09T23:59:12.317Z,13.90
